Sage Lab — WDH3681 — position and weather

sailwx.info

Track history (hours):
 
Tides and Currents Weather Stations Pressure Air Temp Water Temp Dewpoint Dewpoint Depression Visibility Wind Speed Wind Dir Waves Ship Positions

Sage Lab

Owner: Laborde Marine Management, Morgan City, LA. More information available from US FCC via Universal Licensing System and Coast Guard Vessel Documentation Center.

Last reported at 2018-Jun-16 10:49 UTC. Time now 2018-Jun-25 04:25 UTC.
Position N 29°51' W 091°54'.
Warning: this ship's position is 8 days out of date.

Length 46 m; draft 10.2 m.

Type: Other ship. MMSI: 366951840.

Date/timePositionNaut miles runAvg speedWind from/ knotsBaromVisibWave heightAir tempDewpointWater temp
2018-Jun-16 10:49N 29°51' W 091°54'412.3
2018-Jun-16 10:30N 29°50' W 091°58'612.0
2018-Jun-16 10:00N 29°48' W 092°04'4 7.6
2018-Jun-16 09:30N 29°47' W 092°09'0 0.6
2018-Jun-16 09:00N 29°48' W 092°09'0 0.0
2018-Jun-16 08:28N 29°48' W 092°09'0 0.0
2018-Jun-16 07:58N 29°48' W 092°09'0 0.0
2018-Jun-16 07:28N 29°48' W 092°09'0 0.0
2018-Jun-16 06:55N 29°48' W 092°09'0 0.0
2018-Jun-16 06:28N 29°48' W 092°09'0 0.0
2018-Jun-16 05:55N 29°48' W 092°09'0 0.0
2018-Jun-16 05:28N 29°48' W 092°09'0 0.0
2018-Jun-16 04:58N 29°48' W 092°09'0 0.0
2018-Jun-16 04:28N 29°48' W 092°09'1 2.7
2018-Jun-16 04:00N 29°47' W 092°10'1 1.9
2018-Jun-16 03:29N 29°47' W 092°11'0 0.0
2018-Jun-16 02:58N 29°47' W 092°11'0 0.0
2018-Jun-16 02:30N 29°47' W 092°11'611.2
2018-Jun-16 02:00N 29°42' W 092°15'8 0.7
2018-Jun-15 13:08N 29°34' W 092°18'1 7.9
2018-Jun-15 12:58N 29°36' W 092°18'510.7
2018-Jun-15 12:30N 29°40' W 092°15'510.9
2018-Jun-15 12:00N 29°45' W 092°13'4 8.7
2018-Jun-15 11:30N 29°47' W 092°09'0 0.4
2018-Jun-15 10:59N 29°48' W 092°09'0 0.0
2018-Jun-15 10:26N 29°48' W 092°09'0 0.0
2018-Jun-15 09:59N 29°48' W 092°09'0 0.0
2018-Jun-15 09:29N 29°48' W 092°09'0 0.0
2018-Jun-15 08:59N 29°48' W 092°09'0 0.0
2018-Jun-15 08:29N 29°48' W 092°09'0 0.0
2018-Jun-15 07:59N 29°48' W 092°09'0 0.0
2018-Jun-15 07:29N 29°48' W 092°09'0 0.0
2018-Jun-15 06:59N 29°48' W 092°09'0 0.0
2018-Jun-15 06:23N 29°48' W 092°09'0 0.0
2018-Jun-15 05:59N 29°48' W 092°09'0 0.0
2018-Jun-15 05:29N 29°48' W 092°09'0 0.0
2018-Jun-15 05:00N 29°48' W 092°09'0 0.1
2018-Jun-15 04:30N 29°48' W 092°09'0 0.1
2018-Jun-15 04:00N 29°48' W 092°09'0 0.0
2018-Jun-15 03:30N 29°48' W 092°09'0 0.0
2018-Jun-15 03:00N 29°48' W 092°09'0 0.2
2018-Jun-15 02:30N 29°47' W 092°09'2 4.2
2018-Jun-15 02:00N 29°47' W 092°11'2 4.2
2018-Jun-15 01:30N 29°48' W 092°09'0 0.0
2018-Jun-15 01:00N 29°48' W 092°09'0 0.0
2018-Jun-15 00:30N 29°48' W 092°09'0 0.0
2018-Jun-15 00:00N 29°48' W 092°09'0 0.0
2018-Jun-14 23:30N 29°48' W 092°09'0 0.0
2018-Jun-14 23:00N 29°48' W 092°09'2 3.4
2018-Jun-14 22:30N 29°47' W 092°10'511.1
2018-Jun-14 22:00N 29°43' W 092°15'613.0
2018-Jun-14 21:30N 29°37' W 092°17'1 0.1
2018-Jun-14 11:05N 29°36' W 092°18'114.0
2018-Jun-14 11:00N 29°36' W 092°17'613.1
2018-Jun-14 10:30N 29°43' W 092°15'510.8
2018-Jun-14 10:01N 29°47' W 092°11'0 0.5
2018-Jun-14 09:31N 29°47' W 092°11'0 0.0
2018-Jun-14 09:01N 29°47' W 092°11'0 0.0
2018-Jun-14 08:30N 29°47' W 092°11'0 0.0
2018-Jun-14 08:00N 29°47' W 092°11'0 0.0
2018-Jun-14 07:29N 29°47' W 092°11'2 4.5
2018-Jun-14 07:00N 29°48' W 092°09'0 0.0
2018-Jun-14 06:30N 29°48' W 092°09'0 0.0
2018-Jun-14 06:00N 29°48' W 092°09'0 0.0
2018-Jun-14 05:30N 29°48' W 092°09'0 0.7
2018-Jun-14 05:00N 29°47' W 092°09'612.4
2018-Jun-14 04:31N 29°44' W 092°15'917.4
2018-Jun-14 04:00N 29°35' W 092°18'0 0.0
2018-Jun-13 10:22N 29°36' W 092°18'616.4
2018-Jun-13 10:00N 29°41' W 092°15'714.1
2018-Jun-13 09:31N 29°47' W 092°10'1 2.8
2018-Jun-13 09:01N 29°48' W 092°09'0 0.0
2018-Jun-13 08:30N 29°48' W 092°09'0 0.0
2018-Jun-13 08:00N 29°48' W 092°09'0 0.0
2018-Jun-13 07:31N 29°48' W 092°09'0 0.0
2018-Jun-13 07:01N 29°48' W 092°09'0 0.0
2018-Jun-13 06:30N 29°48' W 092°09'0 0.1
2018-Jun-13 06:00N 29°48' W 092°09'0 0.0
2018-Jun-13 05:30N 29°48' W 092°09'0 0.0
2018-Jun-13 05:00N 29°48' W 092°09'1 1.4
2018-Jun-13 04:30N 29°47' W 092°09'510.9
2018-Jun-13 04:01N 29°44' W 092°14'1016.5
2018-Jun-13 03:23N 29°34' W 092°18'1 0.1
2018-Jun-12 08:24N 29°36' W 092°18'514.1
2018-Jun-12 08:01N 29°41' W 092°15'713.3
2018-Jun-12 07:29N 29°46' W 092°11'2 4.5
2018-Jun-12 07:00N 29°48' W 092°09'1 1.9
2018-Jun-12 06:30N 29°47' W 092°09'611.7
2018-Jun-12 06:00N 29°43' W 092°15'917.2
2018-Jun-12 05:29N 29°35' W 092°18'2 0.1
2018-Jun-11 10:34N 29°36' W 092°17'111.5
2018-Jun-11 10:30N 29°37' W 092°17'611.9
2018-Jun-11 10:00N 29°43' W 092°15'510.7
2018-Jun-11 09:30N 29°47' W 092°11'0 0.9
2018-Jun-11 09:00N 29°47' W 092°11'0 0.0
2018-Jun-11 08:30N 29°47' W 092°11'0 0.0
2018-Jun-11 08:00N 29°47' W 092°11'0 0.1
2018-Jun-11 07:30N 29°47' W 092°11'2 4.3
2018-Jun-11 07:00N 29°47' W 092°09'0 0.4
2018-Jun-11 06:30N 29°48' W 092°09'0 0.0
2018-Jun-11 06:00N 29°48' W 092°09'0 0.0
2018-Jun-11 05:30N 29°48' W 092°09'1 2.8
2018-Jun-11 05:00N 29°47' W 092°10'510.6
2018-Jun-11 04:30N 29°43' W 092°15'611.7
2018-Jun-11 04:00N 29°38' W 092°16'2 0.1
2018-Jun-09 20:59N 29°36' W 092°17'816.4
2018-Jun-09 20:30N 29°44' W 092°15'612.5
2018-Jun-09 20:00N 29°47' W 092°09'0 0.6
2018-Jun-09 19:31N 29°48' W 092°09'0 0.0
2018-Jun-09 19:01N 29°48' W 092°09'0 0.0
2018-Jun-09 18:31N 29°48' W 092°09'0 0.0
2018-Jun-09 18:01N 29°48' W 092°09'0 0.0
2018-Jun-09 17:31N 29°48' W 092°09'0 0.0
2018-Jun-09 17:01N 29°48' W 092°09'0 0.0
2018-Jun-09 16:31N 29°48' W 092°09'4 8.1
2018-Jun-09 16:01N 29°45' W 092°12'816.9
2018-Jun-09 15:30N 29°37' W 092°16'2 0.3
2018-Jun-09 08:59N 29°36' W 092°18'1020.1
2018-Jun-09 08:30N 29°45' W 092°13'510.4
2018-Jun-09 08:00N 29°47' W 092°09'0 0.1
2018-Jun-09 07:30N 29°48' W 092°09'0 0.0
2018-Jun-09 07:00N 29°48' W 092°09'0 0.0
2018-Jun-09 06:30N 29°48' W 092°09'0 0.0
2018-Jun-09 06:00N 29°48' W 092°09'0 0.0
2018-Jun-09 05:29N 29°48' W 092°09'0 0.1
2018-Jun-09 05:00N 29°48' W 092°09'0 0.1
2018-Jun-09 04:30N 29°48' W 092°09'0 0.1
2018-Jun-09 04:00N 29°48' W 092°09'0 0.0
2018-Jun-09 03:30N 29°48' W 092°09'0 0.0
2018-Jun-09 03:00N 29°48' W 092°09'0 0.0
2018-Jun-09 02:30N 29°48' W 092°09'0 0.0
2018-Jun-09 02:00N 29°48' W 092°09'0 0.0
2018-Jun-09 01:30N 29°48' W 092°09'0 0.0
2018-Jun-09 01:00N 29°48' W 092°09'0 0.0
2018-Jun-09 00:30N 29°48' W 092°09'0 0.0
2018-Jun-09 00:00N 29°48' W 092°09'1 1.6
2018-Jun-08 23:30N 29°47' W 092°09'4 8.8
2018-Jun-08 23:00N 29°44' W 092°14'4 8.9
2018-Jun-08 22:30N 29°40' W 092°15'5 0.4
2018-Jun-08 07:40N 29°35' W 092°18'212.7
2018-Jun-08 07:30N 29°37' W 092°17'612.5
2018-Jun-08 07:00N 29°43' W 092°15'611.1
2018-Jun-08 06:30N 29°47' W 092°10'1 2.6
2018-Jun-08 06:00N 29°48' W 092°09'0 0.0
2018-Jun-08 05:30N 29°48' W 092°09'0 0.0
2018-Jun-08 05:01N 29°48' W 092°09'0 0.1
2018-Jun-08 04:30N 29°47' W 092°09'5 9.2
2018-Jun-08 04:01N 29°45' W 092°13'1019.7
2018-Jun-08 03:30N 29°36' W 092°18'1 0.0
2018-Jun-07 09:24N 29°35' W 092°18'819.5
2018-Jun-07 09:01N 29°43' W 092°15'611.0
2018-Jun-07 08:30N 29°46' W 092°10'2 3.7
2018-Jun-07 08:00N 29°48' W 092°09'0 0.0
2018-Jun-07 07:30N 29°48' W 092°09'0 0.0
2018-Jun-07 07:00N 29°48' W 092°09'0 0.0
2018-Jun-07 06:30N 29°48' W 092°09'0 0.1
2018-Jun-07 06:00N 29°47' W 092°09'0 0.0
2018-Jun-07 05:29N 29°47' W 092°09'0 0.0
2018-Jun-07 05:00N 29°47' W 092°09'0 0.2
2018-Jun-07 04:30N 29°48' W 092°09'0 0.0
2018-Jun-07 03:58N 29°48' W 092°09'0 0.0
2018-Jun-07 03:29N 29°48' W 092°09'0 0.0
2018-Jun-07 03:00N 29°48' W 092°09'0 0.0
2018-Jun-07 02:30N 29°48' W 092°09'0 0.0
2018-Jun-07 02:00N 29°48' W 092°09'1 2.9
2018-Jun-07 01:30N 29°47' W 092°10'918.0
2018-Jun-07 01:00N 29°39' W 092°16'4 0.6
2018-Jun-06 18:11N 29°36' W 092°18'316.0
2018-Jun-06 18:00N 29°38' W 092°16'816.8
2018-Jun-06 17:30N 29°46' W 092°12'3 6.8
2018-Jun-06 17:00N 29°48' W 092°09'0 0.0
2018-Jun-06 16:30N 29°48' W 092°09'0 0.0
2018-Jun-06 16:00N 29°48' W 092°09'0 0.0
2018-Jun-06 15:30N 29°48' W 092°09'0 0.0
2018-Jun-06 15:00N 29°48' W 092°09'0 0.0
2018-Jun-06 14:30N 29°48' W 092°09'0 0.0
2018-Jun-06 14:00N 29°48' W 092°09'0 0.0
2018-Jun-06 13:30N 29°48' W 092°09'0 0.0
2018-Jun-06 13:00N 29°48' W 092°09'0 0.0
2018-Jun-06 12:30N 29°48' W 092°09'0 0.0
2018-Jun-06 12:00N 29°48' W 092°09'0 0.0
2018-Jun-06 11:30N 29°48' W 092°09'0 0.0
2018-Jun-06 11:00N 29°48' W 092°09'  
Track history (hours):
 
Tides and Currents Weather Stations Pressure Air Temp Water Temp Dewpoint Dewpoint Depression Visibility Wind Speed Wind Dir Waves Ship Positions

Sage Lab

Owner: Laborde Marine Management, Morgan City, LA. More information available from US FCC via Universal Licensing System and Coast Guard Vessel Documentation Center.

Last reported at 2018-Jun-16 10:49 UTC. Time now 2018-Jun-25 04:25 UTC.
Position N 29°51' W 091°54'.
Warning: this ship's position is 8 days out of date.

Length 46 m; draft 10.2 m.

Type: Other ship. MMSI: 366951840.

Date/timePositionNaut miles runAvg speedWind from/ knotsBaromVisibWave heightAir tempDewpointWater temp
2018-Jun-16 10:49N 29°51' W 091°54'412.3
2018-Jun-16 10:30N 29°50' W 091°58'612.0
2018-Jun-16 10:00N 29°48' W 092°04'4 7.6
2018-Jun-16 09:30N 29°47' W 092°09'0 0.6
2018-Jun-16 09:00N 29°48' W 092°09'0 0.0
2018-Jun-16 08:28N 29°48' W 092°09'0 0.0
2018-Jun-16 07:58N 29°48' W 092°09'0 0.0
2018-Jun-16 07:28N 29°48' W 092°09'0 0.0
2018-Jun-16 06:55N 29°48' W 092°09'0 0.0
2018-Jun-16 06:28N 29°48' W 092°09'0 0.0
2018-Jun-16 05:55N 29°48' W 092°09'0 0.0
2018-Jun-16 05:28N 29°48' W 092°09'0 0.0
2018-Jun-16 04:58N 29°48' W 092°09'0 0.0
2018-Jun-16 04:28N 29°48' W 092°09'1 2.7
2018-Jun-16 04:00N 29°47' W 092°10'1 1.9
2018-Jun-16 03:29N 29°47' W 092°11'0 0.0
2018-Jun-16 02:58N 29°47' W 092°11'0 0.0
2018-Jun-16 02:30N 29°47' W 092°11'611.2
2018-Jun-16 02:00N 29°42' W 092°15'8 0.7
2018-Jun-15 13:08N 29°34' W 092°18'1 7.9
2018-Jun-15 12:58N 29°36' W 092°18'510.7
2018-Jun-15 12:30N 29°40' W 092°15'510.9
2018-Jun-15 12:00N 29°45' W 092°13'4 8.7
2018-Jun-15 11:30N 29°47' W 092°09'0 0.4
2018-Jun-15 10:59N 29°48' W 092°09'0 0.0
2018-Jun-15 10:26N 29°48' W 092°09'0 0.0
2018-Jun-15 09:59N 29°48' W 092°09'0 0.0
2018-Jun-15 09:29N 29°48' W 092°09'0 0.0
2018-Jun-15 08:59N 29°48' W 092°09'0 0.0
2018-Jun-15 08:29N 29°48' W 092°09'0 0.0
2018-Jun-15 07:59N 29°48' W 092°09'0 0.0
2018-Jun-15 07:29N 29°48' W 092°09'0 0.0
2018-Jun-15 06:59N 29°48' W 092°09'0 0.0
2018-Jun-15 06:23N 29°48' W 092°09'0 0.0
2018-Jun-15 05:59N 29°48' W 092°09'0 0.0
2018-Jun-15 05:29N 29°48' W 092°09'0 0.0
2018-Jun-15 05:00N 29°48' W 092°09'0 0.1
2018-Jun-15 04:30N 29°48' W 092°09'0 0.1
2018-Jun-15 04:00N 29°48' W 092°09'0 0.0
2018-Jun-15 03:30N 29°48' W 092°09'0 0.0
2018-Jun-15 03:00N 29°48' W 092°09'0 0.2
2018-Jun-15 02:30N 29°47' W 092°09'2 4.2
2018-Jun-15 02:00N 29°47' W 092°11'2 4.2
2018-Jun-15 01:30N 29°48' W 092°09'0 0.0
2018-Jun-15 01:00N 29°48' W 092°09'0 0.0
2018-Jun-15 00:30N 29°48' W 092°09'0 0.0
2018-Jun-15 00:00N 29°48' W 092°09'0 0.0
2018-Jun-14 23:30N 29°48' W 092°09'0 0.0
2018-Jun-14 23:00N 29°48' W 092°09'2 3.4
2018-Jun-14 22:30N 29°47' W 092°10'511.1
2018-Jun-14 22:00N 29°43' W 092°15'613.0
2018-Jun-14 21:30N 29°37' W 092°17'1 0.1
2018-Jun-14 11:05N 29°36' W 092°18'114.0
2018-Jun-14 11:00N 29°36' W 092°17'613.1
2018-Jun-14 10:30N 29°43' W 092°15'510.8
2018-Jun-14 10:01N 29°47' W 092°11'0 0.5
2018-Jun-14 09:31N 29°47' W 092°11'0 0.0
2018-Jun-14 09:01N 29°47' W 092°11'0 0.0
2018-Jun-14 08:30N 29°47' W 092°11'0 0.0
2018-Jun-14 08:00N 29°47' W 092°11'0 0.0
2018-Jun-14 07:29N 29°47' W 092°11'2 4.5
2018-Jun-14 07:00N 29°48' W 092°09'0 0.0
2018-Jun-14 06:30N 29°48' W 092°09'0 0.0
2018-Jun-14 06:00N 29°48' W 092°09'0 0.0
2018-Jun-14 05:30N 29°48' W 092°09'0 0.7
2018-Jun-14 05:00N 29°47' W 092°09'612.4
2018-Jun-14 04:31N 29°44' W 092°15'917.4
2018-Jun-14 04:00N 29°35' W 092°18'0 0.0
2018-Jun-13 10:22N 29°36' W 092°18'616.4
2018-Jun-13 10:00N 29°41' W 092°15'714.1
2018-Jun-13 09:31N 29°47' W 092°10'1 2.8
2018-Jun-13 09:01N 29°48' W 092°09'0 0.0
2018-Jun-13 08:30N 29°48' W 092°09'0 0.0
2018-Jun-13 08:00N 29°48' W 092°09'0 0.0
2018-Jun-13 07:31N 29°48' W 092°09'0 0.0
2018-Jun-13 07:01N 29°48' W 092°09'0 0.0
2018-Jun-13 06:30N 29°48' W 092°09'0 0.1
2018-Jun-13 06:00N 29°48' W 092°09'0 0.0
2018-Jun-13 05:30N 29°48' W 092°09'0 0.0
2018-Jun-13 05:00N 29°48' W 092°09'1 1.4
2018-Jun-13 04:30N 29°47' W 092°09'510.9
2018-Jun-13 04:01N 29°44' W 092°14'1016.5
2018-Jun-13 03:23N 29°34' W 092°18'1 0.1
2018-Jun-12 08:24N 29°36' W 092°18'514.1
2018-Jun-12 08:01N 29°41' W 092°15'713.3
2018-Jun-12 07:29N 29°46' W 092°11'2 4.5
2018-Jun-12 07:00N 29°48' W 092°09'1 1.9
2018-Jun-12 06:30N 29°47' W 092°09'611.7
2018-Jun-12 06:00N 29°43' W 092°15'917.2
2018-Jun-12 05:29N 29°35' W 092°18'2 0.1
2018-Jun-11 10:34N 29°36' W 092°17'111.5
2018-Jun-11 10:30N 29°37' W 092°17'611.9
2018-Jun-11 10:00N 29°43' W 092°15'510.7
2018-Jun-11 09:30N 29°47' W 092°11'0 0.9
2018-Jun-11 09:00N 29°47' W 092°11'0 0.0
2018-Jun-11 08:30N 29°47' W 092°11'0 0.0
2018-Jun-11 08:00N 29°47' W 092°11'0 0.1
2018-Jun-11 07:30N 29°47' W 092°11'2 4.3
2018-Jun-11 07:00N 29°47' W 092°09'0 0.4
2018-Jun-11 06:30N 29°48' W 092°09'0 0.0
2018-Jun-11 06:00N 29°48' W 092°09'0 0.0
2018-Jun-11 05:30N 29°48' W 092°09'1 2.8
2018-Jun-11 05:00N 29°47' W 092°10'510.6
2018-Jun-11 04:30N 29°43' W 092°15'611.7
2018-Jun-11 04:00N 29°38' W 092°16'2 0.1
2018-Jun-09 20:59N 29°36' W 092°17'816.4
2018-Jun-09 20:30N 29°44' W 092°15'612.5
2018-Jun-09 20:00N 29°47' W 092°09'0 0.6
2018-Jun-09 19:31N 29°48' W 092°09'0 0.0
2018-Jun-09 19:01N 29°48' W 092°09'0 0.0
2018-Jun-09 18:31N 29°48' W 092°09'0 0.0
2018-Jun-09 18:01N 29°48' W 092°09'0 0.0
2018-Jun-09 17:31N 29°48' W 092°09'0 0.0
2018-Jun-09 17:01N 29°48' W 092°09'0 0.0
2018-Jun-09 16:31N 29°48' W 092°09'4 8.1
2018-Jun-09 16:01N 29°45' W 092°12'816.9
2018-Jun-09 15:30N 29°37' W 092°16'2 0.3
2018-Jun-09 08:59N 29°36' W 092°18'1020.1
2018-Jun-09 08:30N 29°45' W 092°13'510.4
2018-Jun-09 08:00N 29°47' W 092°09'0 0.1
2018-Jun-09 07:30N 29°48' W 092°09'0 0.0
2018-Jun-09 07:00N 29°48' W 092°09'0 0.0
2018-Jun-09 06:30N 29°48' W 092°09'0 0.0
2018-Jun-09 06:00N 29°48' W 092°09'0 0.0
2018-Jun-09 05:29N 29°48' W 092°09'0 0.1
2018-Jun-09 05:00N 29°48' W 092°09'0 0.1
2018-Jun-09 04:30N 29°48' W 092°09'0 0.1
2018-Jun-09 04:00N 29°48' W 092°09'0 0.0
2018-Jun-09 03:30N 29°48' W 092°09'0 0.0
2018-Jun-09 03:00N 29°48' W 092°09'0 0.0
2018-Jun-09 02:30N 29°48' W 092°09'0 0.0
2018-Jun-09 02:00N 29°48' W 092°09'0 0.0
2018-Jun-09 01:30N 29°48' W 092°09'0 0.0
2018-Jun-09 01:00N 29°48' W 092°09'0 0.0
2018-Jun-09 00:30N 29°48' W 092°09'0 0.0
2018-Jun-09 00:00N 29°48' W 092°09'1 1.6
2018-Jun-08 23:30N 29°47' W 092°09'4 8.8
2018-Jun-08 23:00N 29°44' W 092°14'4 8.9
2018-Jun-08 22:30N 29°40' W 092°15'5 0.4
2018-Jun-08 07:40N 29°35' W 092°18'212.7
2018-Jun-08 07:30N 29°37' W 092°17'612.5
2018-Jun-08 07:00N 29°43' W 092°15'611.1
2018-Jun-08 06:30N 29°47' W 092°10'1 2.6
2018-Jun-08 06:00N 29°48' W 092°09'0 0.0
2018-Jun-08 05:30N 29°48' W 092°09'0 0.0
2018-Jun-08 05:01N 29°48' W 092°09'0 0.1
2018-Jun-08 04:30N 29°47' W 092°09'5 9.2
2018-Jun-08 04:01N 29°45' W 092°13'1019.7
2018-Jun-08 03:30N 29°36' W 092°18'1 0.0
2018-Jun-07 09:24N 29°35' W 092°18'819.5
2018-Jun-07 09:01N 29°43' W 092°15'611.0
2018-Jun-07 08:30N 29°46' W 092°10'2 3.7
2018-Jun-07 08:00N 29°48' W 092°09'0 0.0
2018-Jun-07 07:30N 29°48' W 092°09'0 0.0
2018-Jun-07 07:00N 29°48' W 092°09'0 0.0
2018-Jun-07 06:30N 29°48' W 092°09'0 0.1
2018-Jun-07 06:00N 29°47' W 092°09'0 0.0
2018-Jun-07 05:29N 29°47' W 092°09'0 0.0
2018-Jun-07 05:00N 29°47' W 092°09'0 0.2
2018-Jun-07 04:30N 29°48' W 092°09'0 0.0
2018-Jun-07 03:58N 29°48' W 092°09'0 0.0
2018-Jun-07 03:29N 29°48' W 092°09'0 0.0
2018-Jun-07 03:00N 29°48' W 092°09'0 0.0
2018-Jun-07 02:30N 29°48' W 092°09'0 0.0
2018-Jun-07 02:00N 29°48' W 092°09'1 2.9
2018-Jun-07 01:30N 29°47' W 092°10'918.0
2018-Jun-07 01:00N 29°39' W 092°16'4 0.6
2018-Jun-06 18:11N 29°36' W 092°18'316.0
2018-Jun-06 18:00N 29°38' W 092°16'816.8
2018-Jun-06 17:30N 29°46' W 092°12'3 6.8
2018-Jun-06 17:00N 29°48' W 092°09'0 0.0
2018-Jun-06 16:30N 29°48' W 092°09'0 0.0
2018-Jun-06 16:00N 29°48' W 092°09'0 0.0
2018-Jun-06 15:30N 29°48' W 092°09'0 0.0
2018-Jun-06 15:00N 29°48' W 092°09'0 0.0
2018-Jun-06 14:30N 29°48' W 092°09'0 0.0
2018-Jun-06 14:00N 29°48' W 092°09'0 0.0
2018-Jun-06 13:30N 29°48' W 092°09'0 0.0
2018-Jun-06 13:00N 29°48' W 092°09'0 0.0
2018-Jun-06 12:30N 29°48' W 092°09'0 0.0
2018-Jun-06 12:00N 29°48' W 092°09'0 0.0
2018-Jun-06 11:30N 29°48' W 092°09'0 0.0
2018-Jun-06 11:00N 29°48' W 092°09'  

Dump ship's entire track history